Time;durP1;ratioP1;P1;durP2;ratioP2;P2;SDS_P1;SDS_P2;PMS_P1;PMS_P2;Temp;Humidity;BMP_temperature;BMP_pressure;BME280_temperature;BME280_humidity;BME280_pressure;Samples;Min_cycle;Max_cycle;Signal;HPM_P1;HPM_P2
2022/11/17 11:50:50;;;;;;;18.50;12.50;;;4.70;1.00;;;;;;6203903;22;20464;-47
2022/11/17 11:53:31;;;;;;;21.67;12.80;;;4.70;1.00;;;;;;6212242;23;20467;-48
2022/11/17 11:56:07;;;;;;;19.33;12.57;;;4.70;97.20;;;;;;6212820;23;20704;-49
2022/11/17 11:58:36;;;;;;;22.63;13.90;;;4.60;99.90;;;;;;6212216;23;20373;-48
2022/11/17 12:01:07;;;;;;;23.77;12.90;;;4.60;99.90;;;;;;6212977;23;20369;-49
2022/11/17 12:03:52;;;;;;;29.07;14.87;;;4.60;99.90;;;;;;6213072;23;21192;-48
2022/11/17 12:09:21;;;;;;;20.97;12.67;;;4.60;1.00;;;;;;6093403;23;20393;-47
2022/11/17 12:12:01;;;;;;;21.57;13.17;;;4.60;95.10;;;;;;6195168;23;20408;-53
2022/11/17 12:14:33;;;;;;;21.33;12.93;;;4.60;99.90;;;;;;6213160;23;20370;-49
2022/11/17 12:17:22;;;;;;;24.00;13.47;;;4.50;58.60;;;;;;6212620;23;20397;-48
2022/11/17 12:19:52;;;;;;;20.13;12.27;;;4.50;99.90;;;;;;6212604;23;20369;-48
2022/11/17 12:22:33;;;;;;;23.20;15.07;;;4.50;99.90;;;;;;6212034;23;20804;-48
2022/11/17 12:25:25;;;;;;;22.57;14.33;;;4.60;1.00;;;;;;6212495;23;20581;-49
2022/11/17 12:27:52;;;;;;;23.10;13.97;;;4.50;1.00;;;;;;6212692;23;20456;-50
2022/11/17 12:30:29;;;;;;;18.63;12.60;;;4.50;1.00;;;;;;6213387;23;20370;-48
2022/11/17 12:32:57;;;;;;;23.30;13.37;;;4.60;1.00;;;;;;6212990;23;20386;-58
2022/11/17 12:35:40;;;;;;;24.00;13.40;;;4.50;31.90;;;;;;6213868;23;20428;-48
2022/11/17 12:38:15;;;;;;;19.93;12.33;;;4.60;99.90;;;;;;6213607;23;20776;-49
2022/11/17 12:40:48;;;;;;;23.47;13.30;;;4.50;99.90;;;;;;6213495;23;20362;-47
2022/11/17 12:43:13;;;;;;;23.57;13.13;;;4.50;1.00;;;;;;6213311;23;20416;-48
2022/11/17 12:45:51;;;;;;;20.20;12.20;;;4.60;1.00;;;;;;6212869;23;20362;-49
2022/11/17 12:48:22;;;;;;;24.10;13.83;;;4.50;99.90;;;;;;6212783;23;20209;-47
2022/11/17 12:51:11;;;;;;;23.67;14.07;;;4.50;1.00;;;;;;6213342;23;20416;-48
2022/11/17 12:53:52;;;;;;;25.40;15.33;;;4.50;1.00;;;;;;6215927;23;20362;-49
2022/11/17 12:57:22;;;;;;;22.40;14.23;;;4.50;99.90;;;;;;6217036;23;20418;-48
2022/11/17 13:00:14;;;;;;;26.17;14.20;;;4.60;99.90;;;;;;6157460;23;20431;-58
2022/11/17 13:03:03;;;;;;;22.40;13.67;;;4.50;99.90;;;;;;6212979;23;20408;-53
2022/11/17 13:05:29;;;;;;;20.80;12.07;;;4.50;99.90;;;;;;6216725;23;20373;-49
2022/11/17 13:08:13;;;;;;;21.80;13.37;;;4.50;99.90;;;;;;6216877;23;20711;-48
2022/11/17 13:10:39;;;;;;;27.37;14.60;;;4.50;99.90;;;;;;6217315;23;20381;-48
2022/11/17 13:13:18;;;;;;;25.13;14.47;;;4.50;27.90;;;;;;6218059;23;20390;-49
2022/11/17 13:15:47;;;;;;;22.73;13.67;;;4.50;12.50;;;;;;6217040;23;20662;-48
2022/11/17 13:18:39;;;;;;;24.57;14.30;;;4.50;99.90;;;;;;6217349;23;20366;-50
2022/11/17 13:21:23;;;;;;;25.77;13.97;;;4.50;99.90;;;;;;6217209;23;20358;-50
2022/11/17 13:23:49;;;;;;;28.63;14.40;;;4.50;1.00;;;;;;6216124;23;20357;-48
2022/11/17 13:26:15;;;;;;;22.07;13.50;;;4.50;1.00;;;;;;6215393;23;20800;-48
2022/11/17 13:28:41;;;;;;;23.70;14.07;;;4.50;1.00;;;;;;6214383;23;20377;-49
2022/11/17 13:31:26;;;;;;;24.63;14.73;;;4.50;1.00;;;;;;6214883;23;20151;-49
2022/11/17 13:34:06;;;;;;;27.07;14.07;;;4.50;1.00;;;;;;6214140;23;20432;-50
2022/11/17 13:36:32;;;;;;;25.07;14.83;;;4.50;1.00;;;;;;6214761;23;20421;-49
2022/11/17 13:39:01;;;;;;;25.40;14.43;;;4.40;2.50;;;;;;6213495;23;20445;-48
2022/11/17 13:41:38;;;;;;;23.37;14.30;;;4.40;1.00;;;;;;6213278;23;20454;-46
2022/11/17 13:44:07;;;;;;;29.37;14.90;;;4.50;99.90;;;;;;6214071;23;20390;-49
2022/11/17 13:46:34;;;;;;;27.87;14.77;;;4.40;51.30;;;;;;6214647;23;20919;-47
2022/11/17 13:49:00;;;;;;;22.93;13.70;;;4.40;1.00;;;;;;6214819;23;20409;-48
2022/11/17 13:51:37;;;;;;;25.30;14.40;;;4.40;77.50;;;;;;6214486;23;20433;-49
2022/11/17 13:54:14;;;;;;;22.53;13.33;;;4.40;99.90;;;;;;6212980;23;20134;-48
2022/11/17 13:56:46;;;;;;;22.40;13.27;;;4.30;1.00;;;;;;6214645;23;20425;-49
2022/11/17 13:59:20;;;;;;;26.80;14.20;;;4.30;99.90;;;;;;6214183;23;20377;-48
2022/11/17 14:01:46;;;;;;;23.03;13.93;;;4.30;1.00;;;;;;6214339;23;20408;-49
2022/11/17 14:04:21;;;;;;;28.20;14.50;;;4.40;1.00;;;;;;6213727;23;20369;-47
2022/11/17 14:07:01;;;;;;;25.55;15.32;;;4.30;99.90;;;;;;6212709;23;20456;-49
2022/11/17 14:09:29;;;;;;;26.90;14.83;;;4.30;99.90;;;;;;6213897;23;20177;-53
2022/11/17 14:11:57;;;;;;;26.23;14.50;;;4.30;99.90;;;;;;6214021;23;20774;-50
2022/11/17 14:14:32;;;;;;;32.20;15.90;;;4.30;1.00;;;;;;6213522;23;20378;-49
2022/11/17 14:17:28;;;;;;;22.87;14.23;;;4.30;1.00;;;;;;6214603;23;20404;-49
2022/11/17 14:19:53;;;;;;;32.43;15.13;;;4.30;1.00;;;;;;6214149;23;20418;-49
2022/11/17 14:22:24;;;;;;;24.97;13.60;;;4.20;1.00;;;;;;6214744;23;20376;-51
2022/11/17 14:24:50;;;;;;;26.80;13.77;;;4.20;99.90;;;;;;6213196;23;20176;-48
2022/11/17 14:27:28;;;;;;;24.80;13.30;;;4.20;99.90;;;;;;6209980;23;20842;-49
2022/11/17 14:29:54;;;;;;;25.03;13.80;;;4.20;99.90;;;;;;6213544;23;20358;-48
2022/11/17 14:32:20;;;;;;;23.83;13.50;;;4.20;1.00;;;;;;6213222;23;20899;-49
2022/11/17 14:34:45;;;;;;;23.00;13.70;;;4.20;1.00;;;;;;6214372;23;20298;-49
2022/11/17 14:37:11;;;;;;;25.37;13.37;;;4.10;99.90;;;;;;6214377;23;20989;-50
2022/11/17 14:39:37;;;;;;;23.90;13.40;;;4.10;1.00;;;;;;6213618;23;20221;-49
2022/11/17 14:42:02;;;;;;;26.50;14.43;;;4.10;1.00;;;;;;6213710;23;20603;-49
2022/11/17 14:44:28;;;;;;;22.40;12.17;;;4.20;1.00;;;;;;6213694;23;20150;-48
2022/11/17 14:46:53;;;;;;;24.30;13.00;;;4.20;1.00;;;;;;6213767;23;20177;-52
2022/11/17 14:49:19;;;;;;;22.63;13.60;;;4.20;99.90;;;;;;6213856;23;20177;-48
2022/11/17 14:51:48;;;;;;;22.77;13.53;;;4.10;99.90;;;;;;6213176;23;20206;-48
2022/11/17 14:54:14;;;;;;;23.47;13.27;;;4.10;99.90;;;;;;6212588;23;20561;-48
2022/11/17 14:56:39;;;;;;;24.23;13.43;;;4.10;99.90;;;;;;6213032;23;20436;-48
2022/11/17 14:59:05;;;;;;;21.40;13.40;;;4.10;1.00;;;;;;6213488;23;20477;-47
2022/11/17 15:01:33;;;;;;;22.30;13.10;;;4.10;1.00;;;;;;6214145;23;20193;-48
2022/11/17 15:04:01;;;;;;;26.83;14.70;;;4.00;1.00;;;;;;6213877;23;20167;-47
2022/11/17 15:06:27;;;;;;;23.10;13.00;;;4.00;1.00;;;;;;6213691;23;20373;-47
2022/11/17 15:09:01;;;;;;;22.37;13.23;;;4.10;99.90;;;;;;6213120;23;20374;-48
2022/11/17 15:11:30;;;;;;;22.60;13.03;;;4.10;99.90;;;;;;6213591;23;20370;-48
2022/11/17 15:14:03;;;;;;;24.60;13.70;;;4.10;99.90;;;;;;6213656;23;20397;-47
2022/11/17 15:16:28;;;;;;;24.10;14.13;;;4.00;99.90;;;;;;6213648;23;20499;-48
2022/11/17 15:18:54;;;;;;;22.83;13.70;;;4.10;1.00;;;;;;6213348;23;20361;-48
2022/11/17 15:21:20;;;;;;;23.87;13.57;;;4.10;99.90;;;;;;6213593;23;20196;-48
2022/11/17 15:23:45;;;;;;;24.70;12.27;;;4.00;1.00;;;;;;6213546;23;20150;-47
2022/11/17 15:26:14;;;;;;;24.50;12.80;;;4.10;1.00;;;;;;6212521;23;20162;-47
2022/11/17 15:28:40;;;;;;;22.50;12.10;;;4.00;1.00;;;;;;6212509;23;20150;-48
2022/11/17 15:31:15;;;;;;;19.60;12.60;;;4.00;1.00;;;;;;6213211;23;20370;-48
2022/11/17 15:33:42;;;;;;;23.10;13.23;;;4.00;1.00;;;;;;6212720;23;20397;-48
2022/11/17 15:36:11;;;;;;;22.57;12.97;;;4.00;13.40;;;;;;6213160;23;20428;-48
2022/11/17 15:38:38;;;;;;;23.63;12.90;;;4.00;97.60;;;;;;6212118;23;20819;-49
2022/11/17 15:41:05;;;;;;;23.53;13.53;;;4.00;99.90;;;;;;6213556;23;21174;-50
2022/11/17 15:43:33;;;;;;;20.20;12.73;;;4.00;99.90;;;;;;6213112;23;20372;-49
2022/11/17 15:46:04;;;;;;;21.17;12.30;;;4.00;99.90;;;;;;6213181;23;20874;-49
2022/11/17 15:48:37;;;;;;;20.90;11.40;;;4.00;99.90;;;;;;6212583;23;20385;-49
2022/11/17 15:51:03;;;;;;;18.90;11.63;;;4.10;99.90;;;;;;6213974;23;20477;-48
2022/11/17 15:53:35;;;;;;;24.60;12.87;;;4.00;99.90;;;;;;6213116;23;20890;-48
2022/11/17 15:56:35;;;;;;;21.40;12.33;;;4.10;99.90;;;;;;6214235;23;20429;-48
2022/11/17 15:59:02;;;;;;;23.20;11.27;;;4.00;98.40;;;;;;6214796;23;20361;-48
2022/11/17 16:01:32;;;;;;;24.30;12.60;;;4.00;99.90;;;;;;6213897;23;20359;-48
2022/11/17 16:04:03;;;;;;;20.70;11.77;;;4.00;99.90;;;;;;6213966;23;20409;-49
2022/11/17 16:06:31;;;;;;;21.70;12.27;;;3.90;99.90;;;;;;6213735;23;20442;-48
2022/11/17 16:08:56;;;;;;;21.23;11.70;;;3.90;99.90;;;;;;6214298;23;20895;-47
2022/11/17 16:11:23;;;;;;;20.33;11.20;;;3.90;99.90;;;;;;6214079;23;20385;-48
2022/11/17 16:13:52;;;;;;;20.10;12.13;;;3.90;99.90;;;;;;6187592;23;20169;-47
2022/11/17 16:16:18;;;;;;;23.00;12.37;;;3.90;99.90;;;;;;6214724;23;20508;-48
2022/11/17 16:18:44;;;;;;;18.13;10.63;;;3.90;99.90;;;;;;6213590;23;20738;-48
2022/11/17 16:21:11;;;;;;;20.20;12.00;;;3.90;99.90;;;;;;6213507;23;20154;-48
2022/11/17 16:23:55;;;;;;;19.70;11.43;;;3.90;1.00;;;;;;6213523;23;20456;-48
2022/11/17 16:26:22;;;;;;;19.37;11.70;;;3.90;1.00;;;;;;6215599;23;20362;-47
2022/11/17 16:28:48;;;;;;;18.70;11.70;;;4.00;1.00;;;;;;6190689;23;20412;-48
2022/11/17 16:31:19;;;;;;;19.20;10.93;;;3.90;1.00;;;;;;6214118;23;20381;-48
2022/11/17 16:33:50;;;;;;;18.77;10.47;;;4.00;1.00;;;;;;6214324;23;20370;-48
2022/11/17 16:36:17;;;;;;;19.90;11.43;;;4.00;1.00;;;;;;6213893;23;20409;-48
2022/11/17 16:38:43;;;;;;;20.90;11.20;;;4.00;1.00;;;;;;6212159;23;20382;-48
2022/11/17 16:41:09;;;;;;;22.77;13.00;;;4.00;1.00;;;;;;6215384;23;20680;-48
2022/11/17 16:43:35;;;;;;;19.93;12.40;;;4.00;1.00;;;;;;6213803;23;20146;-48
2022/11/17 16:46:17;;;;;;;27.60;14.03;;;4.00;1.00;;;;;;6214624;23;20246;-48
2022/11/17 16:48:44;;;;;;;20.60;11.30;;;4.00;1.00;;;;;;6214070;23;20861;-48
2022/11/17 16:51:10;;;;;;;20.27;11.33;;;4.00;1.00;;;;;;6214184;23;20456;-48
2022/11/17 16:53:36;;;;;;;19.47;11.63;;;3.90;1.00;;;;;;6215205;23;20704;-48
2022/11/17 16:56:03;;;;;;;18.53;10.23;;;4.00;1.00;;;;;;6213979;23;20174;-48
2022/11/17 16:58:29;;;;;;;23.27;11.43;;;3.90;1.00;;;;;;6187952;23;20182;-48
2022/11/17 17:00:54;;;;;;;17.13;10.23;;;3.90;1.00;;;;;;6213166;23;20381;-49
2022/11/17 17:03:20;;;;;;;17.10;9.60;;;3.90;1.00;;;;;;6213323;23;20154;-48
2022/11/17 17:05:46;;;;;;;20.20;11.03;;;3.90;1.00;;;;;;6214122;23;20143;-47
2022/11/17 17:08:11;;;;;;;20.03;11.00;;;3.90;1.00;;;;;;6213103;23;20153;-47
2022/11/17 17:10:37;;;;;;;21.27;10.97;;;3.90;1.00;;;;;;6214322;23;20242;-47
2022/11/17 17:13:03;;;;;;;21.93;11.57;;;3.90;1.00;;;;;;6212712;23;20220;-48
2022/11/17 17:15:28;;;;;;;18.07;10.50;;;3.90;1.00;;;;;;6213402;23;20720;-47
2022/11/17 17:17:54;;;;;;;20.53;10.80;;;3.90;1.00;;;;;;6213951;23;20208;-48
2022/11/17 17:20:19;;;;;;;20.47;11.37;;;3.90;1.00;;;;;;6214854;23;20481;-48
2022/11/17 17:22:45;;;;;;;19.57;11.07;;;3.90;1.00;;;;;;6213472;23;20150;-48
2022/11/17 17:25:11;;;;;;;22.10;11.43;;;3.90;1.00;;;;;;6214329;23;20170;-48
2022/11/17 17:27:36;;;;;;;20.80;11.47;;;3.90;1.00;;;;;;6215106;23;20530;-48
2022/11/17 17:30:03;;;;;;;21.50;11.40;;;3.90;1.00;;;;;;6215833;23;20225;-48
2022/11/17 17:32:29;;;;;;;22.87;12.10;;;3.80;1.00;;;;;;6214353;23;20158;-47
2022/11/17 17:34:54;;;;;;;23.07;12.63;;;3.90;1.00;;;;;;6215032;23;20382;-47
2022/11/17 17:37:20;;;;;;;19.40;10.97;;;3.90;1.00;;;;;;6211946;23;20526;-47
2022/11/17 17:39:45;;;;;;;23.40;11.43;;;3.90;1.00;;;;;;6214119;23;20150;-48
2022/11/17 17:42:12;;;;;;;23.73;12.03;;;3.90;1.00;;;;;;6213456;23;20143;-48
2022/11/17 17:44:38;;;;;;;18.50;10.77;;;3.90;1.00;;;;;;6213594;23;20154;-47
2022/11/17 17:47:03;;;;;;;19.03;10.40;;;3.90;1.00;;;;;;6213269;23;20380;-48
2022/11/17 17:49:29;;;;;;;19.57;11.17;;;3.90;1.00;;;;;;6213116;23;20163;-48
2022/11/17 17:51:54;;;;;;;20.63;11.30;;;3.90;1.00;;;;;;6212640;23;20198;-48
2022/11/17 17:54:22;;;;;;;20.83;11.93;;;3.90;1.00;;;;;;6214035;23;20147;-47
